createdAt,value
2022-11-16T00:01:47.500Z,10.40
2022-11-16T00:04:15.222Z,10.30
2022-11-16T00:06:43.371Z,10.30
2022-11-16T00:09:23.626Z,10.30
2022-11-16T00:11:56.456Z,10.20
2022-11-16T00:14:25.939Z,10.20
2022-11-16T00:16:52.854Z,10.20
2022-11-16T00:19:19.893Z,10.20
2022-11-16T00:21:46.960Z,10.10
2022-11-16T00:24:15.874Z,10.10
2022-11-16T00:26:43.176Z,10.10
2022-11-16T00:29:18.985Z,10.10
2022-11-16T00:31:46.644Z,10.10
2022-11-16T00:34:14.493Z,10.10
2022-11-16T00:36:41.669Z,10.10
2022-11-16T00:39:11.958Z,10.00
2022-11-16T00:41:39.256Z,10.10
2022-11-16T00:44:06.901Z,10.10
2022-11-16T00:46:33.988Z,10.00
2022-11-16T00:49:02.308Z,10.00
2022-11-16T00:51:29.990Z,10.00
2022-11-16T00:53:59.198Z,10.00
2022-11-16T00:56:28.285Z,10.00
2022-11-16T00:58:55.280Z,9.90
2022-11-16T01:01:22.771Z,9.90
2022-11-16T01:03:51.419Z,9.90
2022-11-16T01:06:20.475Z,9.80
2022-11-16T01:08:47.432Z,9.70
2022-11-16T01:11:34.387Z,9.70
2022-11-16T01:14:07.792Z,9.60
2022-11-16T01:16:36.461Z,9.60
2022-11-16T01:19:05.090Z,9.50
2022-11-16T01:21:33.077Z,9.50
2022-11-16T01:24:00.264Z,9.40
2022-11-16T01:26:27.535Z,9.40
2022-11-16T01:28:54.665Z,9.40
2022-11-16T01:31:22.038Z,9.40
2022-11-16T01:33:52.026Z,9.40
2022-11-16T01:36:24.023Z,9.40
2022-11-16T01:38:52.236Z,9.40
2022-11-16T01:41:25.537Z,9.30
2022-11-16T01:44:05.863Z,9.40
2022-11-16T01:46:46.405Z,9.30
2022-11-16T01:49:20.572Z,9.30
2022-11-16T01:51:53.464Z,9.30
2022-11-16T01:54:21.186Z,9.30
2022-11-16T01:56:57.216Z,9.30
2022-11-16T01:59:34.078Z,9.30
2022-11-16T02:02:01.995Z,9.30
2022-11-16T02:04:31.191Z,9.30
2022-11-16T02:07:04.632Z,9.30
2022-11-16T02:10:06.260Z,9.30
2022-11-16T02:12:57.479Z,9.30
2022-11-16T02:16:09.315Z,9.20
2022-11-16T02:18:47.615Z,9.20
2022-11-16T02:21:57.063Z,9.20
2022-11-16T02:24:33.531Z,9.20
2022-11-16T02:27:34.474Z,9.20
2022-11-16T02:30:04.090Z,9.10
2022-11-16T02:32:40.114Z,9.20
2022-11-16T02:35:21.116Z,9.10
2022-11-16T02:38:02.862Z,9.10
2022-11-16T02:40:33.186Z,9.10
2022-11-16T02:43:09.663Z,9.10
2022-11-16T02:45:49.924Z,9.00
2022-11-16T02:48:29.087Z,9.00
2022-11-16T02:50:58.274Z,9.00
2022-11-16T02:53:26.158Z,9.00
2022-11-16T02:55:56.510Z,9.00
2022-11-16T02:58:25.958Z,9.00
2022-11-16T03:01:10.334Z,9.00
2022-11-16T03:03:46.323Z,9.00
2022-11-16T03:06:26.751Z,9.00
2022-11-16T03:09:05.902Z,9.00
2022-11-16T03:12:00.491Z,8.90
2022-11-16T03:14:43.340Z,8.90
2022-11-16T03:17:18.846Z,8.90
2022-11-16T03:19:54.179Z,8.90
2022-11-16T03:22:36.398Z,8.90
2022-11-16T03:25:05.014Z,8.90
2022-11-16T03:27:41.867Z,9.00
2022-11-16T03:30:08.965Z,9.00
2022-11-16T03:33:08.982Z,9.00
2022-11-16T03:35:44.426Z,9.10
2022-11-16T03:38:14.651Z,9.10
2022-11-16T03:40:47.002Z,9.10
2022-11-16T03:43:15.504Z,9.10
2022-11-16T03:45:43.412Z,9.20
2022-11-16T03:48:12.313Z,9.20
2022-11-16T03:50:42.686Z,9.20
2022-11-16T03:53:13.086Z,9.20
2022-11-16T03:55:40.057Z,9.30
2022-11-16T03:58:07.625Z,9.30
2022-11-16T04:00:34.806Z,9.30
2022-11-16T04:03:09.403Z,9.30
2022-11-16T04:05:56.230Z,9.30
2022-11-16T04:08:44.310Z,9.30
2022-11-16T04:11:37.936Z,9.40
2022-11-16T04:14:24.573Z,9.40
2022-11-16T04:17:10.278Z,9.40
2022-11-16T04:19:58.252Z,9.40
2022-11-16T04:22:53.449Z,9.40
2022-11-16T04:25:26.379Z,9.40
2022-11-16T04:28:13.698Z,9.40
2022-11-16T04:31:10.352Z,9.40
2022-11-16T04:33:57.889Z,9.40
2022-11-16T04:36:43.735Z,9.40
2022-11-16T04:39:12.423Z,9.50
2022-11-16T04:41:58.246Z,9.50
2022-11-16T04:44:50.951Z,9.60
2022-11-16T04:47:18.305Z,9.60
2022-11-16T04:49:47.206Z,9.60
2022-11-16T04:52:14.358Z,9.60
2022-11-16T04:54:44.867Z,9.60
2022-11-16T04:57:12.904Z,9.70
2022-11-16T04:59:40.092Z,9.70
2022-11-16T05:02:10.652Z,9.70
2022-11-16T05:05:04.863Z,9.60
2022-11-16T05:07:33.940Z,9.70
2022-11-16T05:10:08.127Z,9.60
2022-11-16T05:12:35.061Z,9.60
2022-11-16T05:15:07.321Z,9.60
2022-11-16T05:17:34.937Z,9.60
2022-11-16T05:20:24.321Z,9.60
2022-11-16T05:22:58.472Z,9.60
2022-11-16T05:25:34.027Z,9.50
2022-11-16T05:28:05.274Z,9.50
2022-11-16T05:30:34.904Z,9.50
2022-11-16T05:33:04.204Z,9.50
2022-11-16T05:35:34.747Z,9.40
2022-11-16T05:38:02.229Z,9.40
2022-11-16T05:40:33.010Z,9.40
2022-11-16T05:43:01.212Z,9.40
2022-11-16T05:45:32.431Z,9.40
2022-11-16T05:48:01.108Z,9.40
2022-11-16T05:50:28.258Z,9.50
2022-11-16T05:53:12.167Z,9.50
2022-11-16T05:55:40.381Z,9.50
2022-11-16T05:58:09.092Z,9.50
2022-11-16T06:00:36.527Z,9.50
2022-11-16T06:03:04.958Z,9.50
2022-11-16T06:05:40.197Z,9.50
2022-11-16T06:08:09.226Z,9.60
2022-11-16T06:10:37.083Z,9.60
2022-11-16T06:13:05.180Z,9.60
2022-11-16T06:18:17.749Z,9.60
2022-11-16T06:20:44.865Z,9.60
2022-11-16T06:23:12.026Z,9.70
2022-11-16T06:25:39.883Z,9.70
2022-11-16T06:28:08.267Z,9.70
2022-11-16T06:30:36.523Z,9.70
2022-11-16T06:33:06.542Z,9.70
2022-11-16T06:35:33.823Z,9.70
2022-11-16T06:38:02.987Z,9.70
2022-11-16T06:40:30.760Z,9.70
2022-11-16T06:42:59.095Z,9.70
2022-11-16T06:45:27.877Z,9.70
2022-11-16T06:47:57.347Z,9.70
2022-11-16T06:50:24.488Z,9.80
2022-11-16T06:52:54.045Z,9.80
2022-11-16T06:55:23.000Z,9.80
2022-11-16T06:57:50.020Z,9.80
2022-11-16T07:00:18.255Z,9.80
2022-11-16T07:02:46.514Z,9.70
2022-11-16T07:05:16.527Z,9.80
2022-11-16T07:07:45.328Z,9.70
2022-11-16T07:10:13.968Z,9.80
2022-11-16T07:12:42.193Z,9.80
2022-11-16T07:15:09.792Z,9.80
2022-11-16T07:17:41.141Z,9.80
2022-11-16T07:20:08.985Z,9.80
2022-11-16T07:22:39.589Z,9.80
2022-11-16T07:25:07.922Z,9.80
2022-11-16T07:27:36.482Z,9.80
2022-11-16T07:30:05.754Z,9.80
2022-11-16T07:32:57.731Z,9.80
2022-11-16T07:36:14.144Z,9.80
2022-11-16T07:38:41.829Z,9.80
2022-11-16T07:41:19.908Z,9.80
2022-11-16T07:44:01.186Z,9.80
2022-11-16T07:46:48.407Z,9.90
2022-11-16T07:49:18.734Z,9.80
2022-11-16T07:51:51.225Z,9.80
2022-11-16T07:54:38.430Z,9.80
2022-11-16T07:57:05.525Z,9.90
2022-11-16T07:59:33.167Z,9.90
2022-11-16T08:02:01.503Z,9.90
2022-11-16T08:04:28.533Z,9.90
2022-11-16T08:06:55.727Z,9.90
2022-11-16T08:09:23.618Z,9.90
2022-11-16T08:11:54.962Z,10.00
2022-11-16T08:14:23.562Z,9.90
2022-11-16T08:16:53.603Z,10.00
2022-11-16T08:19:20.637Z,10.00
2022-11-16T08:21:50.688Z,10.00
2022-11-16T08:24:18.357Z,10.10
2022-11-16T08:26:45.758Z,10.10
2022-11-16T08:29:15.326Z,10.10
2022-11-16T08:31:47.650Z,10.20
2022-11-16T08:34:20.184Z,10.20
2022-11-16T08:36:55.658Z,10.20
2022-11-16T08:39:28.719Z,10.20
2022-11-16T08:41:56.008Z,10.20
2022-11-16T08:44:24.534Z,10.20
2022-11-16T08:46:56.001Z,10.20
2022-11-16T08:49:33.684Z,10.20
2022-11-16T08:52:02.404Z,10.20
2022-11-16T08:54:31.214Z,10.20
2022-11-16T08:56:58.449Z,10.20
2022-11-16T08:59:25.887Z,10.20
2022-11-16T09:01:56.840Z,10.20
2022-11-16T09:04:24.633Z,10.20
2022-11-16T09:06:54.056Z,10.20
2022-11-16T09:09:23.812Z,10.20
2022-11-16T09:11:54.425Z,10.20
2022-11-16T09:14:23.042Z,10.20
2022-11-16T09:16:50.041Z,10.20
2022-11-16T09:19:18.992Z,10.20
2022-11-16T09:21:46.134Z,10.20
2022-11-16T09:24:13.272Z,10.20
2022-11-16T09:26:40.283Z,10.20
2022-11-16T09:29:07.345Z,10.20
2022-11-16T09:31:34.927Z,10.20
2022-11-16T09:34:02.956Z,10.30
2022-11-16T09:36:30.936Z,10.30
2022-11-16T09:41:52.005Z,10.30
2022-11-16T09:44:44.512Z,10.30
2022-11-16T09:47:35.065Z,10.30
2022-11-16T09:50:04.822Z,10.40
2022-11-16T09:52:46.447Z,10.40
2022-11-16T09:55:25.602Z,10.30
2022-11-16T09:57:56.082Z,10.40
2022-11-16T10:00:25.142Z,10.30
2022-11-16T10:03:07.489Z,10.30
2022-11-16T10:06:03.507Z,10.40
2022-11-16T10:08:51.743Z,10.40
2022-11-16T10:11:48.591Z,10.40
2022-11-16T10:14:34.377Z,10.40
2022-11-16T10:17:04.793Z,10.40
2022-11-16T10:19:35.094Z,10.40
2022-11-16T10:22:15.348Z,10.40
2022-11-16T10:25:00.738Z,10.40
2022-11-16T10:27:47.190Z,10.40
2022-11-16T10:30:19.693Z,10.50
2022-11-16T10:33:10.915Z,10.50
2022-11-16T10:35:58.199Z,10.50
2022-11-16T10:38:31.787Z,10.50
2022-11-16T10:41:16.801Z,10.50
2022-11-16T10:43:45.334Z,10.50
2022-11-16T10:46:16.692Z,10.50
2022-11-16T10:48:48.743Z,10.50
2022-11-16T10:51:15.813Z,10.60
2022-11-16T10:53:44.295Z,10.60
2022-11-16T10:56:26.474Z,10.60
2022-11-16T10:59:14.887Z,10.60
2022-11-16T11:01:50.761Z,10.60
2022-11-16T11:04:25.115Z,10.60
2022-11-16T11:06:55.429Z,10.60
2022-11-16T11:09:34.105Z,10.70
2022-11-16T11:12:34.094Z,10.70
2022-11-16T11:15:06.767Z,10.70
2022-11-16T11:17:36.229Z,10.70
2022-11-16T11:20:05.901Z,10.70
2022-11-16T11:22:35.783Z,10.70
2022-11-16T11:25:03.614Z,10.70
2022-11-16T11:27:35.496Z,10.60
2022-11-16T11:30:04.298Z,10.60
2022-11-16T11:32:35.129Z,10.60
2022-11-16T11:35:05.479Z,10.50
2022-11-16T11:37:39.081Z,10.60
2022-11-16T11:40:22.237Z,10.50
2022-11-16T11:42:53.940Z,10.60
2022-11-16T11:45:24.717Z,10.50
2022-11-16T11:48:01.957Z,10.50
2022-11-16T11:50:53.123Z,10.50
2022-11-16T11:53:57.115Z,10.50
2022-11-16T11:56:26.159Z,10.50
2022-11-16T11:58:54.132Z,10.40
2022-11-16T12:01:59.573Z,10.40
2022-11-16T12:05:08.615Z,10.40
2022-11-16T12:07:50.741Z,10.40
2022-11-16T12:10:43.075Z,10.30
2022-11-16T12:13:32.696Z,10.30
2022-11-16T12:16:38.576Z,10.30
2022-11-16T12:19:57.364Z,10.30
2022-11-16T12:22:33.481Z,10.30
2022-11-16T12:25:25.214Z,10.30
2022-11-16T12:28:04.577Z,10.30
2022-11-16T12:30:39.047Z,10.30
2022-11-16T12:33:13.648Z,10.30
2022-11-16T12:36:17.510Z,10.30
2022-11-16T12:38:49.782Z,10.20
2022-11-16T12:41:49.600Z,10.20
2022-11-16T12:44:40.308Z,10.20
2022-11-16T12:47:19.070Z,10.20
2022-11-16T12:50:08.346Z,10.20
2022-11-16T12:53:01.607Z,10.20
2022-11-16T12:55:57.935Z,10.30
2022-11-16T12:58:49.241Z,10.30
2022-11-16T13:01:43.286Z,10.30
2022-11-16T13:04:19.764Z,10.30
2022-11-16T13:07:00.761Z,10.30
2022-11-16T13:09:36.590Z,10.30
2022-11-16T13:12:08.733Z,10.30
2022-11-16T13:14:46.995Z,10.40
2022-11-16T13:17:19.595Z,10.40
2022-11-16T13:20:04.077Z,10.40
2022-11-16T13:22:34.393Z,10.40
2022-11-16T13:25:31.550Z,10.40
2022-11-16T13:28:07.654Z,10.50
2022-11-16T13:31:09.771Z,10.40
2022-11-16T13:33:51.013Z,10.50
2022-11-16T13:36:46.304Z,10.50
2022-11-16T13:39:21.789Z,10.50
2022-11-16T13:41:52.166Z,10.50
2022-11-16T13:44:20.579Z,10.50
2022-11-16T13:47:12.964Z,10.60
2022-11-16T13:49:49.054Z,10.60
2022-11-16T13:52:24.160Z,10.60
2022-11-16T13:54:59.479Z,10.60
2022-11-16T13:57:35.371Z,10.60
2022-11-16T14:00:02.380Z,10.60
2022-11-16T14:02:35.459Z,10.60
2022-11-16T14:05:06.779Z,10.60
2022-11-16T14:07:35.105Z,10.60
2022-11-16T14:10:06.789Z,10.50
2022-11-16T14:12:54.491Z,10.50
2022-11-16T14:15:26.369Z,10.50
2022-11-16T14:18:09.999Z,10.50
2022-11-16T14:20:59.112Z,10.50
2022-11-16T14:23:51.823Z,10.50
2022-11-16T14:26:46.680Z,10.50
2022-11-16T14:29:23.908Z,10.50
2022-11-16T14:31:56.862Z,10.50
2022-11-16T14:34:40.342Z,10.50
2022-11-16T14:37:17.406Z,10.40
2022-11-16T14:39:45.048Z,10.40
2022-11-16T14:42:38.073Z,10.40
2022-11-16T14:45:33.427Z,10.40
2022-11-16T14:48:05.500Z,10.30
2022-11-16T14:50:40.706Z,10.40
2022-11-16T14:53:14.288Z,10.40
2022-11-16T14:55:43.772Z,10.30
2022-11-16T14:58:19.827Z,10.30
2022-11-16T15:01:02.535Z,10.30
2022-11-16T15:03:42.404Z,10.30
2022-11-16T15:06:10.148Z,10.30
2022-11-16T15:08:38.435Z,10.30
2022-11-16T15:11:13.018Z,10.30
2022-11-16T15:13:45.111Z,10.30
2022-11-16T15:16:18.504Z,10.30
2022-11-16T15:19:02.428Z,10.30
2022-11-16T15:21:31.814Z,10.30
2022-11-16T15:24:28.779Z,10.30
2022-11-16T15:26:46.538Z,10.30
2022-11-16T15:29:17.806Z,10.20
2022-11-16T15:31:45.547Z,10.20
2022-11-16T15:34:15.594Z,10.20
2022-11-16T15:36:42.611Z,10.20
2022-11-16T15:39:21.838Z,10.20
2022-11-16T15:41:52.181Z,10.10
2022-11-16T15:44:22.186Z,10.10
2022-11-16T15:46:53.225Z,10.10
2022-11-16T15:49:38.324Z,10.10
2022-11-16T15:52:05.987Z,10.10
2022-11-16T15:54:54.109Z,10.10
2022-11-16T15:57:23.621Z,10.10
2022-11-16T15:59:55.687Z,10.10
2022-11-16T16:02:29.676Z,10.10
2022-11-16T16:04:56.819Z,10.00
2022-11-16T16:07:41.619Z,10.10
2022-11-16T16:10:25.712Z,10.00
2022-11-16T16:12:55.068Z,10.00
2022-11-16T16:15:36.741Z,10.00
2022-11-16T16:18:11.575Z,10.10
2022-11-16T16:20:38.658Z,10.10
2022-11-16T16:23:11.466Z,10.00
2022-11-16T16:25:39.253Z,10.00
2022-11-16T16:28:06.341Z,10.00
2022-11-16T16:30:34.823Z,9.90
2022-11-16T16:33:02.380Z,9.90
2022-11-16T16:35:29.669Z,9.90
2022-11-16T16:37:59.288Z,9.90
2022-11-16T16:40:27.140Z,9.90
2022-11-16T16:42:56.136Z,9.90
2022-11-16T16:45:37.242Z,9.90
2022-11-16T16:48:05.409Z,9.90
2022-11-16T16:50:32.522Z,9.90
2022-11-16T16:53:00.238Z,9.90
2022-11-16T16:55:27.305Z,9.90
2022-11-16T16:57:57.733Z,9.90
2022-11-16T17:00:25.941Z,9.90
2022-11-16T17:03:02.533Z,9.80
2022-11-16T17:05:58.470Z,9.80
2022-11-16T17:08:51.648Z,9.80
2022-11-16T17:14:58.317Z,9.80
2022-11-16T17:17:56.620Z,9.80
2022-11-16T17:20:42.690Z,9.80
2022-11-16T17:23:39.023Z,9.80
2022-11-16T17:26:20.908Z,9.80
2022-11-16T17:29:31.270Z,9.80
2022-11-16T17:32:22.577Z,9.80
2022-11-16T17:35:21.454Z,9.80
2022-11-16T17:38:00.277Z,9.80
2022-11-16T17:40:57.274Z,9.80
2022-11-16T17:43:31.335Z,9.70
2022-11-16T17:46:38.570Z,9.70
2022-11-16T17:49:30.954Z,9.70
2022-11-16T17:52:05.268Z,9.60
2022-11-16T17:54:47.137Z,9.60
2022-11-16T17:57:53.740Z,9.60
2022-11-16T18:00:30.477Z,9.60
2022-11-16T18:03:12.966Z,9.60
2022-11-16T18:06:31.027Z,9.60
2022-11-16T18:09:38.772Z,9.70
2022-11-16T18:12:18.933Z,9.60
2022-11-16T18:15:26.490Z,9.60
2022-11-16T18:18:45.343Z,9.60
2022-11-16T18:21:54.641Z,9.50
2022-11-16T18:28:30.670Z,9.50
2022-11-16T18:31:20.139Z,9.50
2022-11-16T18:34:15.971Z,9.50
2022-11-16T18:37:01.314Z,9.40
2022-11-16T18:40:33.285Z,9.40
2022-11-16T18:46:35.198Z,9.40
2022-11-16T18:49:47.013Z,9.40
2022-11-16T18:53:12.004Z,9.40
2022-11-16T18:56:16.223Z,9.40
2022-11-16T18:59:05.288Z,9.40
2022-11-16T19:14:14.624Z,9.30
2022-11-16T19:23:48.557Z,9.30
2022-11-16T19:26:50.698Z,9.30
2022-11-16T19:29:40.028Z,9.30
2022-11-16T19:32:52.220Z,9.30
2022-11-16T19:39:00.970Z,9.30
2022-11-16T19:41:40.399Z,9.30
2022-11-16T19:44:17.997Z,9.30
2022-11-16T19:47:15.694Z,9.30
2022-11-16T19:49:57.116Z,9.30
2022-11-16T19:53:07.094Z,9.30
2022-11-16T19:56:24.618Z,9.30
2022-11-16T19:59:03.728Z,9.30
2022-11-16T20:01:59.700Z,9.20
2022-11-16T20:04:58.507Z,9.20
2022-11-16T20:08:05.089Z,9.20
2022-11-16T20:10:51.030Z,9.20
2022-11-16T20:13:24.370Z,9.20
2022-11-16T20:16:12.372Z,9.20
2022-11-16T20:19:20.177Z,9.10
2022-11-16T20:22:08.150Z,9.20
2022-11-16T20:25:03.753Z,9.10
2022-11-16T20:27:51.865Z,9.10
2022-11-16T20:30:39.303Z,9.10
2022-11-16T20:33:23.136Z,9.10
2022-11-16T20:36:06.780Z,9.00
2022-11-16T20:38:46.254Z,9.00
2022-11-16T20:41:43.049Z,9.00
2022-11-16T20:44:27.039Z,9.00
2022-11-16T20:47:14.073Z,9.00
2022-11-16T20:50:14.447Z,9.00
2022-11-16T20:52:54.805Z,9.00
2022-11-16T20:55:41.614Z,8.90
2022-11-16T20:58:47.174Z,8.90
2022-11-16T21:01:26.788Z,8.90
2022-11-16T21:04:29.340Z,8.90
2022-11-16T21:07:27.907Z,8.90
2022-11-16T21:10:38.444Z,8.90
2022-11-16T21:13:42.023Z,8.80
2022-11-16T21:16:28.149Z,8.80
2022-11-16T21:19:13.512Z,8.80
2022-11-16T21:22:04.421Z,8.80
2022-11-16T21:24:40.977Z,8.80
2022-11-16T21:27:17.635Z,8.70
2022-11-16T21:29:55.575Z,8.70
2022-11-16T21:32:37.467Z,8.70
2022-11-16T21:35:20.049Z,8.70
2022-11-16T21:37:57.642Z,8.60
2022-11-16T21:40:57.763Z,8.60
2022-11-16T21:43:41.106Z,8.60
2022-11-16T21:52:12.925Z,8.50
2022-11-16T21:55:13.067Z,8.50
2022-11-16T21:57:54.086Z,8.50
2022-11-16T22:00:59.856Z,8.50
2022-11-16T22:03:37.111Z,8.50
2022-11-16T22:06:45.759Z,8.50
2022-11-16T22:09:40.952Z,8.50
2022-11-16T22:12:39.256Z,8.50
2022-11-16T22:15:57.833Z,8.50
2022-11-16T22:18:28.154Z,8.50
2022-11-16T22:21:06.763Z,8.50
2022-11-16T22:23:41.705Z,8.50
2022-11-16T22:26:17.363Z,8.40
2022-11-16T22:29:03.966Z,8.40
2022-11-16T22:31:42.276Z,8.40
2022-11-16T22:34:17.418Z,8.40
2022-11-16T22:37:01.946Z,8.40
2022-11-16T22:39:51.574Z,8.40
2022-11-16T22:42:39.070Z,8.40
2022-11-16T22:45:23.113Z,8.30
2022-11-16T22:48:13.905Z,8.40
2022-11-16T22:51:33.633Z,8.30
2022-11-16T22:54:11.591Z,8.30
2022-11-16T22:59:54.735Z,8.30
2022-11-16T23:02:36.241Z,8.30
2022-11-16T23:05:32.897Z,8.30
2022-11-16T23:08:00.382Z,8.30
2022-11-16T23:10:27.394Z,8.30
2022-11-16T23:13:12.904Z,8.30
2022-11-16T23:15:51.862Z,8.30
2022-11-16T23:18:19.731Z,8.40
2022-11-16T23:21:05.317Z,8.40
2022-11-16T23:23:51.347Z,8.40
2022-11-16T23:26:42.357Z,8.40
2022-11-16T23:29:10.627Z,8.40
2022-11-16T23:31:38.062Z,8.40
2022-11-16T23:34:05.362Z,8.40
2022-11-16T23:36:32.370Z,8.40
2022-11-16T23:39:00.310Z,8.40
2022-11-16T23:41:45.830Z,8.40
2022-11-16T23:44:13.643Z,8.30
2022-11-16T23:46:41.894Z,8.40
2022-11-16T23:49:10.103Z,8.30
2022-11-16T23:51:37.407Z,8.40
2022-11-16T23:54:04.929Z,8.30
2022-11-16T23:56:31.946Z,8.30
2022-11-16T23:58:58.909Z,8.30
